AAA1537 YMHB-YSSY
Flight info
| Callsign | AAA1537 |
|---|---|
| Flight time | 1h 31m |
| Altitude | 37000 |
| Route | LATUM H111 LT J22 NUNPA/N0441F380 J163 CB/N0440F390 W423 CULIN Y59 TARAL DCT RIVET |
| Aircraft | B737/M-SDE2E3FGHIRWXY/LB1 |
Departure
| Time | 2026-05-09 03:58 |
|---|---|
| Airport | Hobart International Airport (YMHB) |
Arrival
| Time | 2026-05-09 05:29 |
|---|---|
| Airport | Sydney Kingsford Smith International Airport (YSSY) |
| Time | Latitude | Longitude | Altitude | Speed | Heading |
|---|---|---|---|---|---|
| 2026-05-09 03:27 | -42.83684 | 147.50623 | 21 ft | 0 kts | 225° |
| 2026-05-09 03:52 | -42.83668 | 147.50645 | 21 ft | 4 kts | 225° |
| 2026-05-09 03:53 | -42.83651 | 147.50667 | 21 ft | 4 kts | 212° |
| 2026-05-09 03:53 | -42.83633 | 147.50672 | 23 ft | 4 kts | 135° |
| 2026-05-09 03:53 | -42.83618 | 147.50644 | 21 ft | 4 kts | 128° |
| 2026-05-09 03:53 | -42.83613 | 147.50635 | 21 ft | 0 kts | 135° |
| 2026-05-09 03:56 | -42.83626 | 147.50653 | 21 ft | 9 kts | 134° |
| 2026-05-09 03:56 | -42.83699 | 147.50766 | 21 ft | 19 kts | 106° |
| 2026-05-09 03:56 | -42.83696 | 147.50918 | 23 ft | 17 kts | 131° |
| 2026-05-09 03:57 | -42.83775 | 147.51025 | 22 ft | 16 kts | 134° |
| 2026-05-09 03:57 | -42.83850 | 147.51131 | 23 ft | 15 kts | 130° |
| 2026-05-09 03:57 | -42.83822 | 147.51250 | 21 ft | 15 kts | 45° |
| 2026-05-09 03:57 | -42.83736 | 147.51318 | 22 ft | 23 kts | 344° |
| 2026-05-09 03:58 | -42.83437 | 147.50934 | 21 ft | 94 kts | 315° |
| 2026-05-09 03:58 | -42.83057 | 147.50417 | 25 ft | 133 kts | 314° |
| 2026-05-09 03:58 | -42.82096 | 147.49207 | 800 ft | 135 kts | 318° |
| 2026-05-09 03:58 | -42.81334 | 147.48377 | 1299 ft | 155 kts | 317° |
| 2026-05-09 03:59 | -42.80791 | 147.47683 | 1627 ft | 160 kts | 310° |
| 2026-05-09 03:59 | -42.79686 | 147.46086 | 2096 ft | 193 kts | 310° |
| 2026-05-09 03:59 | -42.79048 | 147.45163 | 2255 ft | 211 kts | 310° |
| 2026-05-09 03:59 | -42.77969 | 147.43622 | 2493 ft | 238 kts | 311° |
| 2026-05-09 04:00 | -42.76786 | 147.41955 | 3130 ft | 249 kts | 311° |
| 2026-05-09 04:00 | -42.75569 | 147.40262 | 3990 ft | 252 kts | 310° |
| 2026-05-09 04:00 | -42.74316 | 147.38527 | 4733 ft | 261 kts | 309° |
| 2026-05-09 04:00 | -42.73037 | 147.36760 | 5588 ft | 264 kts | 309° |
| 2026-05-09 04:01 | -42.71742 | 147.34979 | 6346 ft | 274 kts | 309° |
| 2026-05-09 04:01 | -42.70379 | 147.33111 | 7121 ft | 280 kts | 309° |
| 2026-05-09 04:01 | -42.69007 | 147.31235 | 8075 ft | 280 kts | 309° |
| 2026-05-09 04:01 | -42.67623 | 147.29344 | 8957 ft | 286 kts | 309° |
| 2026-05-09 04:02 | -42.66210 | 147.27413 | 9888 ft | 290 kts | 310° |
| 2026-05-09 04:02 | -42.64763 | 147.25434 | 10530 ft | 304 kts | 310° |
| 2026-05-09 04:02 | -42.63210 | 147.23308 | 10767 ft | 330 kts | 311° |
| 2026-05-09 04:02 | -42.61555 | 147.21056 | 11439 ft | 340 kts | 311° |
| 2026-05-09 04:03 | -42.59644 | 147.19114 | 12243 ft | 351 kts | 332° |
| 2026-05-09 04:03 | -42.57277 | 147.18330 | 13157 ft | 361 kts | 356° |
| 2026-05-09 04:03 | -42.54750 | 147.18930 | 14051 ft | 371 kts | 20° |
| 2026-05-09 04:03 | -42.52529 | 147.20682 | 14788 ft | 378 kts | 33° |
| 2026-05-09 04:04 | -42.50356 | 147.22755 | 15539 ft | 384 kts | 34° |
| 2026-05-09 04:04 | -42.48158 | 147.24853 | 16332 ft | 389 kts | 34° |
| 2026-05-09 04:04 | -42.45929 | 147.26985 | 17107 ft | 395 kts | 34° |
| 2026-05-09 04:04 | -42.43667 | 147.29138 | 17879 ft | 400 kts | 34° |
| 2026-05-09 04:05 | -42.41367 | 147.31315 | 18586 ft | 407 kts | 34° |
| 2026-05-09 04:05 | -42.39028 | 147.33520 | 19260 ft | 411 kts | 34° |
| 2026-05-09 04:05 | -42.36670 | 147.35738 | 19973 ft | 415 kts | 34° |
| 2026-05-09 04:05 | -42.34249 | 147.37905 | 20661 ft | 419 kts | 27° |
| 2026-05-09 04:06 | -42.31486 | 147.39131 | 21299 ft | 420 kts | 7° |
| 2026-05-09 04:06 | -42.28614 | 147.39169 | 21957 ft | 419 kts | 349° |
| 2026-05-09 04:06 | -42.25734 | 147.38453 | 22606 ft | 423 kts | 346° |
| 2026-05-09 04:06 | -42.22816 | 147.37655 | 23166 ft | 430 kts | 346° |
| 2026-05-09 04:07 | -42.19856 | 147.36889 | 23768 ft | 435 kts | 347° |
| 2026-05-09 04:07 | -42.16862 | 147.36153 | 24316 ft | 439 kts | 348° |
| 2026-05-09 04:07 | -42.13848 | 147.35432 | 24884 ft | 441 kts | 348° |
| 2026-05-09 04:07 | -42.10811 | 147.34712 | 25434 ft | 444 kts | 348° |
| 2026-05-09 04:08 | -42.07790 | 147.33996 | 25949 ft | 447 kts | 348° |
| 2026-05-09 04:08 | -42.04715 | 147.33265 | 26459 ft | 451 kts | 348° |
| 2026-05-09 04:08 | -42.01617 | 147.32526 | 26991 ft | 453 kts | 348° |
| 2026-05-09 04:08 | -41.98499 | 147.31782 | 27514 ft | 455 kts | 348° |
| 2026-05-09 04:09 | -41.95366 | 147.31034 | 28000 ft | 459 kts | 348° |
| 2026-05-09 04:09 | -41.92211 | 147.30280 | 28457 ft | 462 kts | 348° |
| 2026-05-09 04:09 | -41.89031 | 147.29521 | 28918 ft | 465 kts | 348° |
| 2026-05-09 04:09 | -41.85831 | 147.28759 | 29372 ft | 468 kts | 348° |
| 2026-05-09 04:10 | -41.82610 | 147.27992 | 29810 ft | 471 kts | 348° |
| 2026-05-09 04:10 | -41.79368 | 147.27221 | 30243 ft | 474 kts | 348° |
| 2026-05-09 04:10 | -41.76107 | 147.26447 | 30596 ft | 477 kts | 348° |
| 2026-05-09 04:10 | -41.72828 | 147.25668 | 30927 ft | 480 kts | 348° |
| 2026-05-09 04:11 | -41.69525 | 147.24884 | 31196 ft | 484 kts | 348° |
| 2026-05-09 04:11 | -41.66188 | 147.24091 | 31444 ft | 488 kts | 348° |
| 2026-05-09 04:11 | -41.62862 | 147.23304 | 31757 ft | 490 kts | 348° |
| 2026-05-09 04:11 | -41.59504 | 147.22523 | 32182 ft | 489 kts | 350° |
| 2026-05-09 04:12 | -41.56100 | 147.22244 | 32703 ft | 488 kts | 1° |
| 2026-05-09 04:12 | -41.52728 | 147.22735 | 33124 ft | 489 kts | 11° |
| 2026-05-09 04:12 | -41.49436 | 147.23915 | 33419 ft | 491 kts | 21° |
| 2026-05-09 04:12 | -41.46321 | 147.25638 | 33764 ft | 492 kts | 24° |
| 2026-05-09 04:13 | -41.43191 | 147.27468 | 34130 ft | 491 kts | 24° |
| 2026-05-09 04:13 | -41.40067 | 147.29310 | 34549 ft | 488 kts | 24° |
| 2026-05-09 04:13 | -41.36964 | 147.31123 | 34985 ft | 485 kts | 24° |
| 2026-05-09 04:13 | -41.33861 | 147.32911 | 35298 ft | 484 kts | 24° |
| 2026-05-09 04:14 | -41.30763 | 147.34674 | 35554 ft | 485 kts | 23° |
| 2026-05-09 04:14 | -41.27654 | 147.36427 | 35840 ft | 485 kts | 23° |
| 2026-05-09 04:14 | -41.24548 | 147.38171 | 36170 ft | 483 kts | 23° |
| 2026-05-09 04:14 | -41.21451 | 147.39906 | 36502 ft | 482 kts | 23° |
| 2026-05-09 04:15 | -41.18400 | 147.41612 | 36787 ft | 481 kts | 22° |
| 2026-05-09 04:15 | -41.15313 | 147.43339 | 37026 ft | 482 kts | 22° |
| 2026-05-09 04:15 | -41.12212 | 147.45072 | 37221 ft | 483 kts | 22° |
| 2026-05-09 04:15 | -41.09102 | 147.46810 | 37211 ft | 487 kts | 22° |
| 2026-05-09 04:16 | -41.02860 | 147.50293 | 37195 ft | 485 kts | 22° |
| 2026-05-09 04:16 | -40.96686 | 147.53732 | 37199 ft | 479 kts | 22° |
| 2026-05-09 04:17 | -40.90550 | 147.57141 | 37210 ft | 478 kts | 22° |
| 2026-05-09 04:17 | -40.84459 | 147.60519 | 37217 ft | 477 kts | 22° |
| 2026-05-09 04:18 | -40.78340 | 147.63905 | 37209 ft | 477 kts | 22° |
| 2026-05-09 04:18 | -40.72218 | 147.67286 | 37217 ft | 476 kts | 22° |
| 2026-05-09 04:19 | -40.66087 | 147.70664 | 37211 ft | 477 kts | 22° |
| 2026-05-09 04:19 | -40.59946 | 147.74045 | 37211 ft | 478 kts | 22° |
| 2026-05-09 04:20 | -40.53832 | 147.77406 | 37221 ft | 479 kts | 22° |
| 2026-05-09 04:20 | -40.47673 | 147.80785 | 37219 ft | 479 kts | 22° |
| 2026-05-09 04:21 | -40.41517 | 147.84152 | 37222 ft | 480 kts | 22° |
| 2026-05-09 04:22 | -40.32297 | 147.89184 | 37220 ft | 479 kts | 22° |
| 2026-05-09 04:22 | -40.26124 | 147.92543 | 37214 ft | 479 kts | 22° |
| 2026-05-09 04:23 | -40.19972 | 147.95885 | 37221 ft | 478 kts | 22° |
| 2026-05-09 04:23 | -40.13823 | 147.99218 | 37220 ft | 478 kts | 22° |
| 2026-05-09 04:24 | -40.07627 | 148.02168 | 37219 ft | 476 kts | 11° |
| 2026-05-09 04:24 | -40.01132 | 148.03879 | 37235 ft | 475 kts | 9° |
| 2026-05-09 04:25 | -39.94641 | 148.05477 | 37229 ft | 475 kts | 9° |
| 2026-05-09 04:25 | -39.88153 | 148.07119 | 37226 ft | 474 kts | 10° |
| 2026-05-09 04:26 | -39.81676 | 148.08793 | 37236 ft | 474 kts | 10° |
| 2026-05-09 04:26 | -39.75244 | 148.10465 | 37226 ft | 474 kts | 10° |
| 2026-05-09 04:27 | -39.68765 | 148.12147 | 37241 ft | 474 kts | 10° |
| 2026-05-09 04:27 | -39.62282 | 148.13827 | 37242 ft | 474 kts | 10° |
| 2026-05-09 04:28 | -39.55811 | 148.15498 | 37237 ft | 474 kts | 10° |
| 2026-05-09 04:28 | -39.49332 | 148.17167 | 37249 ft | 474 kts | 10° |
| 2026-05-09 04:29 | -39.42896 | 148.18821 | 37251 ft | 475 kts | 10° |
| 2026-05-09 04:29 | -39.36415 | 148.20485 | 37263 ft | 475 kts | 10° |
| 2026-05-09 04:30 | -39.29936 | 148.22144 | 37250 ft | 475 kts | 10° |
| 2026-05-09 04:30 | -39.23457 | 148.23801 | 37259 ft | 474 kts | 10° |
| 2026-05-09 04:31 | -39.16981 | 148.25453 | 37260 ft | 474 kts | 10° |
| 2026-05-09 04:31 | -39.10511 | 148.27101 | 37257 ft | 474 kts | 10° |
| 2026-05-09 04:32 | -39.04043 | 148.28745 | 37253 ft | 473 kts | 9° |
| 2026-05-09 04:32 | -38.97583 | 148.30384 | 37264 ft | 472 kts | 9° |
| 2026-05-09 04:33 | -38.91130 | 148.32018 | 37266 ft | 472 kts | 9° |
| 2026-05-09 04:33 | -38.84713 | 148.33639 | 37271 ft | 472 kts | 9° |
| 2026-05-09 04:34 | -38.78261 | 148.35267 | 37275 ft | 472 kts | 9° |
| 2026-05-09 04:34 | -38.71816 | 148.36889 | 37274 ft | 472 kts | 9° |
| 2026-05-09 04:35 | -38.65404 | 148.38500 | 37271 ft | 472 kts | 9° |
| 2026-05-09 04:35 | -38.58965 | 148.40114 | 37279 ft | 471 kts | 9° |
| 2026-05-09 04:36 | -38.52518 | 148.41726 | 37278 ft | 472 kts | 9° |
| 2026-05-09 04:36 | -38.46072 | 148.43340 | 37277 ft | 471 kts | 9° |
| 2026-05-09 04:37 | -38.39630 | 148.44958 | 37286 ft | 471 kts | 9° |
| 2026-05-09 04:37 | -38.33240 | 148.46557 | 37287 ft | 471 kts | 9° |
| 2026-05-09 04:38 | -38.26813 | 148.48162 | 37301 ft | 470 kts | 9° |
| 2026-05-09 04:38 | -38.20382 | 148.49762 | 37289 ft | 471 kts | 9° |
| 2026-05-09 04:39 | -38.13957 | 148.51358 | 37290 ft | 470 kts | 9° |
| 2026-05-09 04:39 | -38.07537 | 148.52949 | 37293 ft | 470 kts | 9° |
| 2026-05-09 04:40 | -38.01125 | 148.54536 | 37294 ft | 469 kts | 9° |
| 2026-05-09 04:40 | -37.94705 | 148.56121 | 37295 ft | 469 kts | 9° |
| 2026-05-09 04:41 | -37.88305 | 148.57699 | 37297 ft | 468 kts | 9° |
| 2026-05-09 04:41 | -37.81896 | 148.59272 | 37297 ft | 468 kts | 9° |
| 2026-05-09 04:42 | -37.75499 | 148.60845 | 37302 ft | 468 kts | 9° |
| 2026-05-09 04:42 | -37.69142 | 148.62406 | 37299 ft | 468 kts | 9° |
| 2026-05-09 04:43 | -37.62735 | 148.63974 | 37306 ft | 468 kts | 9° |
| 2026-05-09 04:43 | -37.56339 | 148.65537 | 37302 ft | 469 kts | 9° |
| 2026-05-09 04:44 | -37.49934 | 148.67099 | 37306 ft | 469 kts | 9° |
| 2026-05-09 04:44 | -37.43526 | 148.68660 | 37301 ft | 468 kts | 9° |
| 2026-05-09 04:45 | -37.37169 | 148.70206 | 37305 ft | 468 kts | 9° |
| 2026-05-09 04:45 | -37.30760 | 148.71761 | 37300 ft | 468 kts | 9° |
| 2026-05-09 04:46 | -37.24353 | 148.73315 | 37299 ft | 468 kts | 9° |
| 2026-05-09 04:46 | -37.17981 | 148.74857 | 37306 ft | 468 kts | 9° |
| 2026-05-09 04:47 | -37.11584 | 148.76400 | 37297 ft | 468 kts | 9° |
| 2026-05-09 04:47 | -37.05172 | 148.77945 | 37296 ft | 468 kts | 9° |
| 2026-05-09 04:48 | -36.99865 | 148.79222 | 37294 ft | 467 kts | 9° |
| 2026-05-09 04:48 | -36.93503 | 148.80751 | 37289 ft | 466 kts | 9° |
| 2026-05-09 04:49 | -36.86048 | 148.82538 | 37286 ft | 466 kts | 9° |
| 2026-05-09 04:49 | -36.79725 | 148.84053 | 37291 ft | 466 kts | 9° |
| 2026-05-09 04:50 | -36.73356 | 148.85572 | 37282 ft | 465 kts | 9° |
| 2026-05-09 04:50 | -36.67004 | 148.87088 | 37282 ft | 465 kts | 9° |
| 2026-05-09 04:51 | -36.61682 | 148.88357 | 37269 ft | 464 kts | 9° |
| 2026-05-09 04:51 | -36.55381 | 148.89856 | 37266 ft | 464 kts | 9° |
| 2026-05-09 04:52 | -36.49053 | 148.91359 | 37278 ft | 463 kts | 9° |
| 2026-05-09 04:52 | -36.42723 | 148.92860 | 37275 ft | 462 kts | 9° |
| 2026-05-09 04:53 | -36.36397 | 148.94358 | 37272 ft | 462 kts | 9° |
| 2026-05-09 04:53 | -36.30077 | 148.95850 | 37271 ft | 462 kts | 9° |
| 2026-05-09 04:54 | -36.23763 | 148.97337 | 37268 ft | 462 kts | 9° |
| 2026-05-09 04:54 | -36.17434 | 148.98824 | 37261 ft | 462 kts | 9° |
| 2026-05-09 04:55 | -36.11115 | 149.00310 | 37260 ft | 462 kts | 10° |
| 2026-05-09 04:55 | -36.04828 | 149.01788 | 37262 ft | 462 kts | 10° |
| 2026-05-09 04:56 | -35.98508 | 149.03269 | 37264 ft | 462 kts | 10° |
| 2026-05-09 04:56 | -35.92181 | 149.04749 | 37265 ft | 462 kts | 10° |
| 2026-05-09 04:57 | -35.85866 | 149.06224 | 37256 ft | 462 kts | 10° |
| 2026-05-09 04:57 | -35.79541 | 149.07699 | 37264 ft | 461 kts | 10° |
| 2026-05-09 04:58 | -35.73265 | 149.09161 | 37255 ft | 461 kts | 10° |
| 2026-05-09 04:58 | -35.66967 | 149.10625 | 37263 ft | 461 kts | 10° |
| 2026-05-09 04:59 | -35.60665 | 149.12087 | 37262 ft | 461 kts | 10° |
| 2026-05-09 04:59 | -35.54361 | 149.13548 | 37275 ft | 460 kts | 10° |
| 2026-05-09 05:00 | -35.48068 | 149.15003 | 37280 ft | 460 kts | 10° |
| 2026-05-09 05:00 | -35.41816 | 149.16446 | 37292 ft | 460 kts | 10° |
| 2026-05-09 05:01 | -35.35531 | 149.17893 | 37294 ft | 459 kts | 11° |
| 2026-05-09 05:01 | -35.29253 | 149.19339 | 37293 ft | 459 kts | 11° |
| 2026-05-09 05:02 | -35.23064 | 149.21243 | 37302 ft | 458 kts | 17° |
| 2026-05-09 05:02 | -35.16964 | 149.23540 | 37287 ft | 458 kts | 17° |
| 2026-05-09 05:03 | -35.10870 | 149.25807 | 37268 ft | 457 kts | 17° |
| 2026-05-09 05:03 | -35.04803 | 149.28001 | 37266 ft | 456 kts | 17° |
| 2026-05-09 05:04 | -34.98714 | 149.30181 | 37264 ft | 456 kts | 17° |
| 2026-05-09 05:04 | -34.92639 | 149.32353 | 37268 ft | 455 kts | 17° |
| 2026-05-09 05:05 | -34.86564 | 149.34523 | 37269 ft | 454 kts | 17° |
| 2026-05-09 05:05 | -34.80476 | 149.36696 | 36745 ft | 461 kts | 17° |
| 2026-05-09 05:05 | -34.77429 | 149.37881 | 36142 ft | 458 kts | 25° |
| 2026-05-09 05:06 | -34.74704 | 149.39845 | 35470 ft | 455 kts | 41° |
| 2026-05-09 05:06 | -34.72485 | 149.42551 | 34784 ft | 452 kts | 54° |
| 2026-05-09 05:06 | -34.70850 | 149.45805 | 34028 ft | 451 kts | 64° |
| 2026-05-09 05:06 | -34.69415 | 149.49187 | 33331 ft | 449 kts | 65° |
| 2026-05-09 05:07 | -34.68009 | 149.52549 | 32763 ft | 444 kts | 64° |
| 2026-05-09 05:07 | -34.66604 | 149.55876 | 32208 ft | 440 kts | 64° |
| 2026-05-09 05:07 | -34.65198 | 149.59160 | 31669 ft | 436 kts | 64° |
| 2026-05-09 05:07 | -34.63791 | 149.62407 | 31143 ft | 433 kts | 64° |
| 2026-05-09 05:08 | -34.62382 | 149.65632 | 30619 ft | 431 kts | 64° |
| 2026-05-09 05:08 | -34.60977 | 149.68837 | 30060 ft | 429 kts | 63° |
| 2026-05-09 05:08 | -34.59576 | 149.72026 | 29447 ft | 427 kts | 63° |
| 2026-05-09 05:08 | -34.58183 | 149.75195 | 28886 ft | 424 kts | 63° |
| 2026-05-09 05:09 | -34.56818 | 149.78297 | 28327 ft | 420 kts | 63° |
| 2026-05-09 05:09 | -34.55449 | 149.81405 | 27769 ft | 416 kts | 63° |
| 2026-05-09 05:09 | -34.54093 | 149.84483 | 27228 ft | 412 kts | 63° |
| 2026-05-09 05:09 | -34.52748 | 149.87534 | 26693 ft | 408 kts | 63° |
| 2026-05-09 05:10 | -34.51414 | 149.90559 | 26163 ft | 406 kts | 63° |
| 2026-05-09 05:10 | -34.50075 | 149.93591 | 25631 ft | 407 kts | 63° |
| 2026-05-09 05:10 | -34.48731 | 149.96636 | 24907 ft | 411 kts | 63° |
| 2026-05-09 05:10 | -34.47384 | 149.99684 | 24333 ft | 409 kts | 63° |
| 2026-05-09 05:11 | -34.46043 | 150.02718 | 23773 ft | 407 kts | 63° |
| 2026-05-09 05:11 | -34.44706 | 150.05736 | 23133 ft | 405 kts | 63° |
| 2026-05-09 05:11 | -34.43382 | 150.08723 | 22564 ft | 401 kts | 63° |
| 2026-05-09 05:11 | -34.42066 | 150.11690 | 22011 ft | 397 kts | 62° |
| 2026-05-09 05:12 | -34.40781 | 150.14584 | 21484 ft | 394 kts | 62° |
| 2026-05-09 05:12 | -34.39487 | 150.17494 | 20957 ft | 391 kts | 63° |
| 2026-05-09 05:12 | -34.38204 | 150.20379 | 20434 ft | 388 kts | 63° |
| 2026-05-09 05:12 | -34.36925 | 150.23251 | 19907 ft | 385 kts | 63° |
| 2026-05-09 05:13 | -34.35657 | 150.26098 | 19365 ft | 383 kts | 63° |
| 2026-05-09 05:13 | -34.34393 | 150.28932 | 18836 ft | 381 kts | 63° |
| 2026-05-09 05:13 | -34.33135 | 150.31749 | 18251 ft | 380 kts | 62° |
| 2026-05-09 05:13 | -34.31882 | 150.34552 | 17682 ft | 377 kts | 63° |
| 2026-05-09 05:14 | -34.30642 | 150.37328 | 17148 ft | 373 kts | 62° |
| 2026-05-09 05:14 | -34.29409 | 150.40082 | 16629 ft | 370 kts | 63° |
| 2026-05-09 05:14 | -34.28205 | 150.42773 | 16110 ft | 367 kts | 62° |
| 2026-05-09 05:14 | -34.26995 | 150.45478 | 15598 ft | 364 kts | 63° |
| 2026-05-09 05:15 | -34.25794 | 150.48162 | 15080 ft | 361 kts | 63° |
| 2026-05-09 05:15 | -34.24604 | 150.50822 | 14562 ft | 358 kts | 63° |
| 2026-05-09 05:15 | -34.23422 | 150.53461 | 14080 ft | 355 kts | 63° |
| 2026-05-09 05:15 | -34.22247 | 150.56081 | 13475 ft | 354 kts | 63° |
| 2026-05-09 05:16 | -34.21081 | 150.58680 | 12950 ft | 350 kts | 63° |
| 2026-05-09 05:16 | -34.19921 | 150.61261 | 12427 ft | 347 kts | 63° |
| 2026-05-09 05:16 | -34.18775 | 150.63812 | 11877 ft | 345 kts | 63° |
| 2026-05-09 05:16 | -34.17620 | 150.66381 | 11201 ft | 348 kts | 63° |
| 2026-05-09 05:17 | -34.16488 | 150.68897 | 10632 ft | 340 kts | 63° |
| 2026-05-09 05:17 | -34.15383 | 150.71351 | 10343 ft | 321 kts | 63° |
| 2026-05-09 05:17 | -34.14335 | 150.73675 | 10193 ft | 308 kts | 63° |
| 2026-05-09 05:17 | -34.13208 | 150.75816 | 10022 ft | 299 kts | 47° |
| 2026-05-09 05:18 | -34.11559 | 150.77266 | 9749 ft | 293 kts | 26° |
| 2026-05-09 05:18 | -34.09728 | 150.78290 | 9480 ft | 287 kts | 23° |
| 2026-05-09 05:18 | -34.07916 | 150.79237 | 9315 ft | 280 kts | 23° |
| 2026-05-09 05:18 | -34.06115 | 150.80168 | 9078 ft | 285 kts | 23° |
| 2026-05-09 05:19 | -34.04275 | 150.81112 | 8806 ft | 289 kts | 23° |
| 2026-05-09 05:19 | -34.02454 | 150.82043 | 8634 ft | 286 kts | 23° |
| 2026-05-09 05:19 | -34.00631 | 150.82972 | 8490 ft | 282 kts | 22° |
| 2026-05-09 05:19 | -33.98826 | 150.83893 | 8223 ft | 282 kts | 22° |
| 2026-05-09 05:20 | -33.97024 | 150.84811 | 7876 ft | 280 kts | 22° |
| 2026-05-09 05:20 | -33.95232 | 150.85723 | 7502 ft | 280 kts | 23° |
| 2026-05-09 05:20 | -33.93453 | 150.86625 | 7227 ft | 276 kts | 22° |
| 2026-05-09 05:20 | -33.91688 | 150.87518 | 6939 ft | 274 kts | 22° |
| 2026-05-09 05:21 | -33.89936 | 150.88403 | 6724 ft | 273 kts | 23° |
| 2026-05-09 05:21 | -33.88186 | 150.89285 | 6500 ft | 272 kts | 22° |
| 2026-05-09 05:21 | -33.86442 | 150.90167 | 6302 ft | 272 kts | 22° |
| 2026-05-09 05:21 | -33.84730 | 150.91039 | 6121 ft | 271 kts | 22° |
| 2026-05-09 05:22 | -33.82996 | 150.91929 | 5950 ft | 270 kts | 22° |
| 2026-05-09 05:22 | -33.81273 | 150.92821 | 5769 ft | 269 kts | 22° |
| 2026-05-09 05:22 | -33.79594 | 150.93788 | 5612 ft | 267 kts | 35° |
| 2026-05-09 05:22 | -33.78358 | 150.95425 | 5462 ft | 265 kts | 59° |
| 2026-05-09 05:23 | -33.77455 | 150.97355 | 5282 ft | 265 kts | 62° |
| 2026-05-09 05:23 | -33.76594 | 150.99312 | 5080 ft | 265 kts | 62° |
| 2026-05-09 05:23 | -33.75742 | 151.01279 | 4878 ft | 265 kts | 63° |
| 2026-05-09 05:23 | -33.74895 | 151.03247 | 4665 ft | 265 kts | 63° |
| 2026-05-09 05:24 | -33.74051 | 151.05209 | 4465 ft | 264 kts | 62° |
| 2026-05-09 05:24 | -33.73220 | 151.07167 | 4296 ft | 262 kts | 63° |
| 2026-05-09 05:24 | -33.72460 | 151.09126 | 4258 ft | 255 kts | 75° |
| 2026-05-09 05:24 | -33.72515 | 151.11208 | 4257 ft | 254 kts | 113° |
| 2026-05-09 05:25 | -33.73591 | 151.12864 | 4164 ft | 255 kts | 149° |
| 2026-05-09 05:25 | -33.75222 | 151.13663 | 3976 ft | 257 kts | 167° |
| 2026-05-09 05:25 | -33.78678 | 151.14580 | 3316 ft | 254 kts | 169° |
| 2026-05-09 05:26 | -33.80402 | 151.15020 | 2981 ft | 252 kts | 168° |
| 2026-05-09 05:26 | -33.82111 | 151.15467 | 2636 ft | 248 kts | 168° |
| 2026-05-09 05:26 | -33.83765 | 151.15899 | 2312 ft | 239 kts | 168° |
| 2026-05-09 05:26 | -33.85362 | 151.16318 | 1979 ft | 231 kts | 168° |
| 2026-05-09 05:27 | -33.86901 | 151.16719 | 1683 ft | 218 kts | 167° |
| 2026-05-09 05:27 | -33.88298 | 151.17084 | 1402 ft | 193 kts | 166° |
| 2026-05-09 05:27 | -33.89540 | 151.17408 | 1164 ft | 171 kts | 169° |
| 2026-05-09 05:27 | -33.90647 | 151.17697 | 935 ft | 154 kts | 167° |
| 2026-05-09 05:28 | -33.91634 | 151.17955 | 800 ft | 137 kts | 167° |
| 2026-05-09 05:28 | -33.92497 | 151.18180 | 602 ft | 117 kts | 168° |
| 2026-05-09 05:28 | -33.93259 | 151.18380 | 448 ft | 108 kts | 167° |
| 2026-05-09 05:28 | -33.94058 | 151.18595 | 272 ft | 123 kts | 166° |
| 2026-05-09 05:29 | -33.94846 | 151.18793 | 107 ft | 107 kts | 166° |
| 2026-05-09 05:29 | -33.95528 | 151.18978 | 25 ft | 91 kts | 167° |
| 2026-05-09 05:29 | -33.96010 | 151.19101 | 27 ft | 50 kts | 168° |
| 2026-05-09 05:29 | -33.96273 | 151.19171 | 26 ft | 35 kts | 167° |
| 2026-05-09 05:30 | -33.96499 | 151.19219 | 24 ft | 30 kts | 176° |
| 2026-05-09 05:30 | -33.96662 | 151.19186 | 26 ft | 13 kts | 197° |
| 2026-05-09 05:30 | -33.96694 | 151.19173 | 29 ft | 0 kts | 208° |
| 2026-05-09 05:31 | -33.96701 | 151.19166 | 26 ft | 6 kts | 225° |
| 2026-05-09 05:31 | -33.96699 | 151.19092 | 28 ft | 10 kts | 313° |
| 2026-05-09 05:31 | -33.96630 | 151.19060 | 29 ft | 12 kts | 347° |
| 2026-05-09 05:31 | -33.96517 | 151.19030 | 29 ft | 21 kts | 347° |
| 2026-05-09 05:32 | -33.96358 | 151.18989 | 29 ft | 24 kts | 348° |
| 2026-05-09 05:32 | -33.96202 | 151.18948 | 29 ft | 23 kts | 346° |
| 2026-05-09 05:32 | -33.96049 | 151.18910 | 29 ft | 24 kts | 349° |
| 2026-05-09 05:32 | -33.95880 | 151.18864 | 29 ft | 25 kts | 347° |
| 2026-05-09 05:33 | -33.95711 | 151.18820 | 29 ft | 24 kts | 349° |
| 2026-05-09 05:33 | -33.95551 | 151.18779 | 29 ft | 23 kts | 348° |
| 2026-05-09 05:33 | -33.95397 | 151.18740 | 29 ft | 22 kts | 348° |
| 2026-05-09 05:33 | -33.95251 | 151.18684 | 29 ft | 23 kts | 329° |
| 2026-05-09 05:34 | -33.95134 | 151.18554 | 29 ft | 23 kts | 302° |
| 2026-05-09 05:34 | -33.95127 | 151.18373 | 29 ft | 22 kts | 260° |
| 2026-05-09 05:34 | -33.95155 | 151.18209 | 29 ft | 13 kts | 257° |
| 2026-05-09 05:34 | -33.95159 | 151.18186 | 29 ft | 0 kts | 256° |
| 2026-05-09 05:35 | -33.95161 | 151.18174 | 29 ft | 7 kts | 256° |
| 2026-05-09 05:36 | -33.95181 | 151.18074 | 29 ft | 15 kts | 258° |
| 2026-05-09 05:36 | -33.95162 | 151.17963 | 29 ft | 14 kts | 322° |
| 2026-05-09 05:36 | -33.95070 | 151.17934 | 29 ft | 13 kts | 347° |
| 2026-05-09 05:36 | -33.94982 | 151.17912 | 29 ft | 12 kts | 347° |
| 2026-05-09 05:37 | -33.94927 | 151.17898 | 29 ft | 12 kts | 348° |
| 2026-05-09 05:37 | -33.94846 | 151.17876 | 29 ft | 12 kts | 347° |
| 2026-05-09 05:37 | -33.94755 | 151.17851 | 29 ft | 15 kts | 347° |
| 2026-05-09 05:37 | -33.94634 | 151.17820 | 29 ft | 20 kts | 348° |
| 2026-05-09 05:38 | -33.94486 | 151.17782 | 29 ft | 22 kts | 347° |
| 2026-05-09 05:38 | -33.94340 | 151.17735 | 29 ft | 21 kts | 347° |
| 2026-05-09 05:38 | -33.94198 | 151.17691 | 28 ft | 20 kts | 344° |
| 2026-05-09 05:38 | -33.94066 | 151.17653 | 27 ft | 18 kts | 347° |
| 2026-05-09 05:39 | -33.93983 | 151.17632 | 27 ft | 0 kts | 347° |
| 2026-05-09 05:39 | -33.93963 | 151.17626 | 28 ft | 11 kts | 347° |
| 2026-05-09 05:39 | -33.93877 | 151.17603 | 28 ft | 13 kts | 349° |
| 2026-05-09 05:39 | -33.93789 | 151.17582 | 28 ft | 13 kts | 346° |
| 2026-05-09 05:40 | -33.93704 | 151.17563 | 28 ft | 12 kts | 355° |
| 2026-05-09 05:40 | -33.93644 | 151.17618 | 29 ft | 12 kts | 78° |
| 2026-05-09 05:40 | -33.93644 | 151.17690 | 29 ft | 4 kts | 96° |
| 2026-05-09 05:40 | -33.93646 | 151.17702 | 29 ft | 0 kts | 99° |
| 2026-05-09 05:41 | -33.93648 | 151.17712 | 29 ft | 5 kts | 101° |
| 2026-05-09 05:41 | -33.93660 | 151.17774 | 29 ft | 8 kts | 112° |
| 2026-05-09 05:41 | -33.93700 | 151.17797 | 29 ft | 6 kts | 167° |
| 2026-05-09 05:42 | -33.93705 | 151.17846 | 29 ft | 7 kts | 79° |
| 2026-05-09 05:42 | -33.93701 | 151.17870 | 29 ft | 0 kts | 78° |